Latest Weather Observations for Douglas River

IDD60801

Issued at 4:31 pm CST Tuesday 3 March 2015 (issued every 30 minutes, with the page automatically refreshed every 10 minutes)

About weather observations | Map of weather stations | Latest weather observations for NT | Other Formats
Station Details ID: 014901 Name: DOUGLAS RIVER Lat: -13.83 Lon: 131.19 Height: 42.8 m
Data from the previous 72 hours. | See also: Recent months at Douglas River
Date/Time
CST
Temp
°C
App
Temp
°C
Dew
Point
Rel
Hum
%
Delta-T
°C
Wind Press
QNH
hPa
Press
MSL
hPa
Rain
since 9 am
mm
Dir
 
Spd
km/h
Gust
km/h
Spd
kts
Gust
kts
03/04:30pm 33.2 38.1 24.6 60 6.1 NNE 7 13 4 7 1003.8 1003.5 0.0
03/04:00pm 33.4 39.1 25.9 65 5.4 ENE 7 19 4 10 1003.9 1003.6 0.0
03/03:30pm 31.7 37.1 25.5 69 4.4 ENE 7 13 4 7 1004.2 1003.9 0.0
03/03:00pm 32.1 37.2 25.0 66 5.0 ENE 7 19 4 10 1004.2 1003.9 0.0
03/02:30pm 32.5 38.6 26.2 69 4.5 NE 6 9 3 5 1004.7 1004.4 0.0
03/02:00pm 32.2 38.1 26.2 70 4.3 NE 7 19 4 10 1005.1 1004.8 0.0
03/01:30pm 31.0 36.4 25.4 72 4.0 NNE 7 17 4 9 1005.6 1005.3 0.0
03/01:00pm 32.8 37.9 25.5 65 5.2 NE 9 17 5 9 1005.9 1005.6 0.0
03/12:30pm 32.0 37.0 25.4 68 4.7 NE 9 15 5 8 1006.3 1006.0 0.0
03/12:00pm 30.7 36.0 25.2 72 3.9 ENE 7 13 4 7 1006.8 1006.5 0.0
03/11:30am 30.1 35.3 25.1 74 3.5 ENE 7 13 4 7 1006.9 1006.6 0.0
03/11:00am 30.7 36.0 25.3 73 3.8 ENE 7 13 4 7 1006.9 1006.6 0.0
03/10:30am 28.9 34.9 25.5 82 2.4 NNE 4 7 2 4 1007.2 1006.9 0.0
03/10:00am 28.5 32.6 24.6 79 2.7 E 11 15 6 8 1007.1 1006.8 0.0
03/09:30am 27.7 33.3 25.4 87 1.6 E 6 11 3 6 1007.2 1006.9 0.0
03/09:00am 26.5 31.2 24.9 91 1.1 SE 9 13 5 7 1007.0 1006.7 25.2
03/08:30am 25.1 29.5 24.4 96 0.5 ESE 9 13 5 7 1006.8 1006.5 25.2
03/08:00am 24.4 28.6 24.1 98 0.2 ESE 9 13 5 7 1006.5 1006.2 25.2
03/07:30am 24.0 28.3 23.7 98 0.2 E 7 9 4 5 1006.1 1005.8 25.2
03/07:00am 23.9 29.5 23.6 98 0.2 CALM 0 0 0 0 1005.8 1005.5 25.2
03/06:30am 23.7 29.3 23.6 99 0.1 CALM 0 0 0 0 1005.3 1005.0 25.2
03/06:00am 23.8 29.4 23.5 98 0.2 CALM 0 0 0 0 1004.9 1004.6 25.2
03/05:30am 24.0 29.3 23.7 98 0.2 E 2 7 1 4 1004.5 1004.2 25.2
03/05:00am 23.9 29.5 23.6 98 0.2 CALM 0 0 0 0 1004.3 1004.0 25.2
03/04:30am 24.1 29.7 23.5 96 0.4 CALM 0 0 0 0 1004.2 1003.9 25.2
03/04:00am 24.1 29.8 23.7 98 0.3 CALM 0 0 0 0 1004.4 1004.1 25.2
03/03:30am 24.2 29.9 23.8 98 0.3 CALM 0 0 0 0 1004.7 1004.4 25.2
03/03:00am 24.2 29.9 23.8 98 0.3 CALM 0 0 0 0 1005.0 1004.7 25.2
03/02:30am 24.2 29.9 23.8 98 0.3 CALM 0 0 0 0 1005.1 1004.8 25.2
03/02:00am 24.2 29.9 23.8 98 0.3 CALM 0 0 0 0 1005.1 1004.8 25.0
03/01:30am 24.2 29.9 23.8 98 0.3 CALM 0 0 0 0 1005.2 1004.9 25.0
03/01:00am 24.1 29.8 23.7 98 0.3 CALM 0 0 0 0 1005.4 1005.1 25.0
03/12:30am 24.1 29.8 23.7 98 0.3 CALM 0 0 0 0 1005.7 1005.4 25.0
03/12:00am 24.1 29.8 23.8 98 0.2 CALM 0 0 0 0 1006.2 1005.9 25.0
 
Date/Time
CST
Temp
°C
App
Temp
°C
Dew
Point
Rel
Hum
%
Delta-T
°C
Wind Press
QNH
hPa
Press
MSL
hPa
Rain
since 9 am
mm
Dir
 
Spd
km/h
Gust
km/h
Spd
kts
Gust
kts
02/11:30pm 23.9 29.5 23.6 98 0.2 CALM 0 0 0 0 1006.0 1005.7 25.0
02/11:00pm 24.0 29.6 23.6 98 0.3 CALM 0 0 0 0 1006.0 1005.7 25.0
02/10:30pm 23.9 28.1 23.5 98 0.3 SW 7 9 4 5 1006.3 1006.0 25.0
02/10:00pm 24.0 27.4 23.4 96 0.4 WSW 11 20 6 11 1006.0 1005.7 25.0
02/09:30pm 24.0 26.8 23.6 98 0.3 W 15 20 8 11 1006.0 1005.7 25.0
02/09:00pm 24.2 28.2 23.8 98 0.3 WSW 9 13 5 7 1006.2 1005.9 24.0
02/08:30pm 24.1 27.7 23.8 98 0.2 WSW 11 13 6 7 1005.6 1005.3 23.4
02/08:00pm 23.9 28.3 23.5 98 0.3 N 6 11 3 6 1005.4 1005.1 21.2
02/07:30pm 25.8 30.8 25.4 98 0.3 ENE 9 17 5 9 1004.6 1004.3 10.0
02/07:15pm 25.3 24.9 24.6 96 0.5 SE 35 56 19 30 1003.7 - 5.6
02/07:14pm 25.5 23.5 24.6 95 0.6 SSE 43 56 23 30 1003.6 - 3.8
02/07:12pm 25.9 28.7 25.2 96 0.5 ESE 20 56 11 30 1003.7 1003.4 2.6
02/07:00pm 28.8 35.7 27.4 92 1.0 ENE 6 13 3 7 1003.0 1002.7 0.2
02/06:30pm 29.2 37.0 27.1 88 1.5 CALM 0 0 0 0 1002.7 1002.3 0.2
02/06:00pm 29.6 37.6 27.3 87 1.7 CALM 0 0 0 0 1001.8 1001.4 0.2
02/05:30pm 29.6 37.0 26.4 83 2.3 CALM 0 0 0 0 1001.8 1001.4 0.2
02/05:00pm 30.4 36.7 26.5 79 2.8 NW 6 7 3 4 1001.7 1001.3 0.2
02/04:30pm 30.8 38.4 26.8 79 2.9 CALM 0 0 0 0 1002.3 1001.9 0.2
02/04:00pm 31.2 38.1 25.7 72 3.9 CALM 0 6 0 3 1002.4 1002.0 0.2
02/03:30pm 31.5 37.7 26.4 74 3.7 ENE 6 9 3 5 1002.6 1002.2 0.2
02/03:00pm 31.8 36.7 25.3 68 4.6 SE 9 13 5 7 1002.6 1002.2 0.2
02/02:30pm 31.9 36.5 24.7 65 5.1 SE 9 13 5 7 1003.3 1003.0 0.2
02/02:00pm 31.9 37.4 25.6 69 4.5 SSE 7 13 4 7 1003.6 1003.3 0.2
02/01:30pm 31.5 38.3 26.1 73 3.9 W 2 7 1 4 1004.4 1004.1 0.2
02/01:00pm 31.2 37.1 25.9 73 3.8 SW 6 11 3 6 1005.1 1004.8 0.2
02/12:30pm 30.9 37.4 26.3 76 3.3 WSW 4 9 2 5 1005.6 1005.3 0.2
02/12:00pm 30.6 38.1 26.6 79 2.9 CALM 0 0 0 0 1005.8 1005.5 0.2
02/11:30am 30.2 37.4 26.1 79 2.9 CALM 0 7 0 4 1006.2 1005.9 0.2
02/11:00am 30.2 37.1 26.3 79 2.8 NW 2 7 1 4 1006.6 1006.3 0.2
02/10:30am 29.4 35.7 25.9 81 2.5 E 4 9 2 5 1006.6 1006.3 0.2
02/10:00am 28.7 34.4 25.6 83 2.2 E 6 11 3 6 1007.0 1006.7 0.0
02/09:30am 27.7 34.0 25.3 87 1.7 ENE 2 7 1 4 1007.2 1006.9 0.0
02/09:00am 26.8 31.9 24.6 88 1.5 ENE 6 9 3 5 1007.2 1006.9 38.4
02/08:30am 25.8 30.6 24.2 91 1.1 ESE 6 7 3 4 1006.9 1006.6 38.4
02/08:00am 25.4 31.5 24.4 94 0.7 CALM 0 0 0 0 1006.7 1006.4 38.4
02/07:30am 24.3 30.1 23.9 98 0.3 CALM 0 0 0 0 1006.4 1006.1 38.4
02/07:00am 23.8 29.5 23.7 99 0.1 CALM 0 0 0 0 1006.1 1005.8 38.4
02/06:30am 23.8 29.3 23.4 98 0.3 CALM 0 0 0 0 1005.7 1005.4 38.4
02/06:00am 23.8 29.4 23.5 98 0.2 CALM 0 0 0 0 1005.7 1005.4 38.4
02/05:30am 23.8 29.4 23.5 98 0.2 CALM 0 0 0 0 1005.4 1005.1 38.4
02/05:00am 23.7 29.2 23.4 98 0.2 CALM 0 0 0 0 1005.3 1005.0 38.4
02/04:30am 23.7 28.8 23.3 98 0.3 ESE 2 6 1 3 1005.0 1004.7 38.4
02/04:00am 23.7 29.1 23.3 98 0.3 CALM 0 0 0 0 1005.0 1004.7 38.4
02/03:30am 23.6 29.0 23.3 98 0.2 CALM 0 0 0 0 1004.9 1004.6 38.4
02/03:00am 23.6 29.0 23.3 98 0.2 CALM 0 0 0 0 1005.3 1005.0 38.4
02/02:30am 23.6 29.0 23.2 98 0.3 CALM 0 0 0 0 1005.4 1005.1 38.4
02/02:00am 23.7 29.1 23.3 98 0.3 CALM 0 0 0 0 1005.6 1005.3 38.4
02/01:30am 23.7 28.8 23.4 98 0.2 SSE 2 7 1 4 1005.9 1005.6 38.4
02/01:00am 23.8 29.3 23.4 98 0.3 CALM 0 0 0 0 1006.5 1006.2 38.4
02/12:30am 23.8 28.9 23.4 98 0.3 SSE 2 9 1 5 1007.4 1007.1 38.4
02/12:00am 23.8 29.2 23.2 96 0.4 CALM 0 6 0 3 1007.4 1007.1 38.4
 
Date/Time
CST
Temp
°C
App
Temp
°C
Dew
Point
Rel
Hum
%
Delta-T
°C
Wind Press
QNH
hPa
Press
MSL
hPa
Rain
since 9 am
mm
Dir
 
Spd
km/h
Gust
km/h
Spd
kts
Gust
kts
01/11:30pm 23.9 28.2 23.3 96 0.4 NW 6 11 3 6 1007.1 1006.8 38.4
01/11:00pm 24.1 27.6 23.5 96 0.4 W 11 15 6 8 1007.7 1007.4 38.4
01/10:30pm 24.3 27.7 23.3 94 0.7 WNW 11 17 6 9 1007.3 1007.0 38.4
01/10:00pm 24.9 29.7 24.5 98 0.3 W 7 17 4 9 1007.8 1007.5 38.0
01/09:30pm 24.8 29.2 24.4 98 0.3 NNE 9 15 5 8 1007.5 1007.2 14.8
01/09:00pm 25.9 31.1 24.2 90 1.2 NNW 4 6 2 3 1006.7 1006.4 0.0
01/08:30pm 25.9 31.0 24.0 89 1.3 N 4 7 2 4 1006.5 1006.2 0.0
01/08:00pm 26.1 31.1 23.9 88 1.5 NW 4 7 2 4 1005.7 1005.4 0.0
01/07:30pm 26.1 29.6 23.5 85 1.8 W 11 17 6 9 1004.7 1004.4 0.0
01/07:00pm 26.7 29.4 23.5 82 2.2 WNW 15 24 8 13 1004.7 1004.4 0.0
01/06:30pm 27.9 31.5 24.3 81 2.5 WNW 13 22 7 12 1004.1 1003.8 0.0
01/06:00pm 30.7 34.8 24.0 67 4.7 WSW 9 13 5 7 1003.7 1003.4 0.0
01/05:30pm 31.9 37.3 24.5 65 5.2 N 4 9 2 5 1003.6 1003.3 0.0
01/05:00pm 30.7 35.8 24.6 70 4.3 NNW 6 11 3 6 1003.6 1003.3 0.0
01/04:30pm 29.0 31.0 24.6 77 3.1 SSE 22 33 12 18 1003.0 1002.7 0.0
01/04:27pm 29.3 30.8 24.3 74 3.5 SSE 24 33 13 18 1003.0 - 0.0
01/04:00pm 30.7 32.1 23.6 66 4.9 SSW 22 35 12 19 1003.2 1002.9 0.0
01/03:30pm 34.3 39.0 24.9 58 6.7 WNW 9 11 5 6 1003.0 1002.7 0.0
01/03:00pm 34.5 39.5 24.5 56 7.1 NW 6 9 3 5 1003.3 1003.0 0.0
01/02:30pm 33.8 39.0 24.8 59 6.4 W 6 11 3 6 1003.7 1003.4 0.0
01/02:00pm 32.8 38.4 25.5 65 5.2 NNW 6 9 3 5 1004.5 1004.2 0.0
01/01:30pm 32.8 37.9 24.9 63 5.6 WSW 7 13 4 7 1005.2 1004.9 0.0
01/01:00pm 33.4 38.7 25.9 65 5.4 WSW 9 15 5 8 1005.9 1005.6 0.0
01/12:30pm 32.8 37.3 25.2 64 5.4 WSW 11 17 6 9 1006.4 1006.1 0.0
01/12:00pm 32.4 37.8 25.5 67 4.9 SW 7 13 4 7 1006.9 1006.6 0.0
01/11:30am 32.2 37.0 25.1 66 5.0 WNW 9 13 5 7 1007.1 1006.8 0.0
01/11:00am 32.0 38.0 26.0 70 4.3 WNW 6 9 3 5 1007.5 1007.2 0.0
01/10:30am 30.9 36.1 25.7 74 3.7 W 9 15 5 8 1007.4 1007.1 0.0
01/10:00am 30.5 35.5 26.0 77 3.2 W 11 15 6 8 1007.5 1007.2 0.0
01/09:30am 29.4 34.3 25.9 81 2.5 W 11 20 6 11 1007.4 1007.1 0.0
01/09:00am 28.9 34.4 26.1 85 2.0 WNW 9 15 5 8 1007.7 1007.4 0.0
01/08:30am 28.0 35.4 26.5 91 1.1 CALM 0 0 0 0 1007.5 1007.2 0.0
01/08:00am 26.7 33.8 26.0 96 0.5 CALM 0 0 0 0 1007.1 1006.8 0.0
01/07:30am 26.0 32.8 25.6 98 0.3 CALM 0 0 0 0 1006.8 1006.5 0.0
01/07:00am 25.5 32.1 25.2 98 0.2 CALM 0 0 0 0 1006.7 1006.4 0.0
01/06:30am 25.3 31.7 24.9 98 0.3 CALM 0 0 0 0 1006.3 1006.0 0.0
01/06:00am 25.0 31.3 24.7 98 0.2 CALM 0 0 0 0 1005.9 1005.6 0.0
01/05:30am 24.9 31.1 24.6 98 0.2 CALM 0 0 0 0 1005.5 1005.2 0.0
01/05:00am 25.1 31.4 24.8 98 0.2 CALM 0 0 0 0 1005.3 1005.0 0.0
01/04:30am 25.6 32.2 25.3 98 0.2 CALM 0 0 0 0 1005.0 1004.7 0.0
01/04:00am 25.7 32.4 25.4 98 0.2 CALM 0 0 0 0 1005.1 1004.8 0.0
01/03:30am 25.7 32.3 25.3 98 0.3 CALM 0 6 0 3 1005.2 1004.9 0.0
01/03:00am 25.8 32.5 25.4 98 0.3 CALM 0 6 0 3 1005.3 1005.0 0.0
01/02:30am 26.0 32.8 25.6 98 0.3 CALM 0 0 0 0 1005.8 1005.5 0.0
01/02:00am 25.9 32.5 25.3 96 0.4 CALM 0 0 0 0 1006.2 1005.9 0.0
01/01:30am 25.9 31.8 25.3 96 0.4 S 4 6 2 3 1006.4 1006.1 0.0
01/01:00am 26.1 32.1 25.5 96 0.4 SW 4 6 2 3 1007.1 1006.8 0.0
01/12:30am 26.6 32.4 25.8 95 0.6 WNW 6 9 3 5 1007.0 1006.7 0.0
01/12:00am 26.6 32.4 25.8 95 0.6 NW 6 9 3 5 1007.1 1006.8 0.0
 
Date/Time
CST
Temp
°C
App
Temp
°C
Dew
Point
Rel
Hum
%
Delta-T
°C
Wind Press
QNH
hPa
Press
MSL
hPa
Rain
since 9 am
mm
Dir
 
Spd
km/h
Gust
km/h
Spd
kts
Gust
kts
28/11:30pm 26.6 32.7 25.6 94 0.7 NW 4 7 2 4 1007.7 1007.4 0.0
28/11:00pm 26.7 32.3 25.4 93 0.9 NW 6 9 3 5 1008.0 1007.7 0.0
28/10:30pm 26.7 32.2 25.3 92 1.0 WNW 6 9 3 5 1007.8 1007.5 0.0
28/10:00pm 26.9 32.0 25.0 89 1.3 NW 7 9 4 5 1007.2 1006.9 0.0
28/09:30pm 27.1 32.9 25.1 89 1.4 WNW 4 7 2 4 1007.0 1006.7 0.0
28/09:00pm 27.4 32.5 24.7 85 1.9 WNW 6 7 3 4 1006.7 1006.4 0.0
28/08:30pm 27.8 32.9 24.6 83 2.2 WNW 6 7 3 4 1006.0 1005.7 0.0
28/08:00pm 28.1 32.9 24.5 81 2.5 W 7 9 4 5 1005.1 1004.8 0.0
28/07:30pm 28.8 33.2 24.5 77 3.0 WNW 9 17 5 9 1004.8 1004.5 0.0
28/07:00pm 29.9 34.1 24.8 74 3.6 NW 11 19 6 10 1004.3 1004.0 0.0
28/06:30pm 32.0 37.6 24.8 65 5.1 NNW 4 7 2 4 1003.9 1003.6 0.0
28/06:00pm 33.7 38.5 24.2 57 6.7 WNW 6 11 3 6 1003.6 1003.2 0.0
28/05:30pm 32.8 38.7 25.4 65 5.3 NNW 4 7 2 4 1003.6 1003.2 0.0
28/05:00pm 33.8 37.9 24.0 56 6.9 WNW 9 13 5 7 1003.8 1003.5 0.0

Other Formats:

Comma delimited format used in spreadsheet applications
http://www.bom.gov.au/fwo/IDD60801/IDD60801.94128.axf

JavaScript Object Notation format (JSON) in row-major order
http://www.bom.gov.au/fwo/IDD60801/IDD60801.94128.json